createdAt,value
2019-03-21T00:02:05.060Z,73.83
2019-03-21T00:04:31.383Z,71.37
2019-03-21T00:06:57.637Z,75.95
2019-03-21T00:09:23.872Z,78.07
2019-03-21T00:12:00.639Z,73.28
2019-03-21T00:14:48.280Z,78.92
2019-03-21T00:17:27.808Z,71.25
2019-03-21T00:19:54.103Z,76.80
2019-03-21T00:22:20.320Z,74.53
2019-03-21T00:24:46.776Z,78.78
2019-03-21T00:27:13.060Z,74.72
2019-03-21T00:29:39.310Z,78.67
2019-03-21T00:32:05.569Z,79.45
2019-03-21T00:34:31.947Z,80.60
2019-03-21T00:36:58.308Z,75.45
2019-03-21T00:39:32.386Z,82.45
2019-03-21T00:41:52.793Z,81.20
2019-03-21T00:44:19.051Z,74.42
2019-03-21T00:46:45.357Z,78.25
2019-03-21T00:49:11.626Z,79.03
2019-03-21T00:51:37.860Z,79.95
2019-03-21T00:54:04.442Z,78.62
2019-03-21T00:56:31.067Z,77.15
2019-03-21T00:58:57.329Z,77.72
2019-03-21T01:01:23.551Z,76.65
2019-03-21T01:03:50.029Z,73.65
2019-03-21T01:06:16.519Z,75.87
2019-03-21T01:08:42.786Z,71.95
2019-03-21T01:11:09.025Z,78.20
2019-03-21T01:13:39.812Z,79.95
2019-03-21T01:16:06.419Z,77.58
2019-03-21T01:18:35.898Z,76.40
2019-03-21T01:21:02.261Z,78.17
2019-03-21T01:23:28.613Z,74.40
2019-03-21T01:26:07.304Z,69.75
2019-03-21T01:28:33.651Z,74.85
2019-03-21T01:31:00.403Z,76.47
2019-03-21T01:33:26.667Z,73.22
2019-03-21T01:35:52.936Z,71.07
2019-03-21T01:38:19.219Z,74.90
2019-03-21T01:40:51.730Z,75.60
2019-03-21T01:43:18.811Z,69.92
2019-03-21T01:45:45.067Z,78.28
2019-03-21T01:48:11.376Z,76.25
2019-03-21T01:50:38.818Z,67.75
2019-03-21T01:53:05.205Z,76.17
2019-03-21T01:55:31.710Z,72.78
2019-03-21T01:57:58.086Z,75.50
2019-03-21T02:00:51.011Z,74.72
2019-03-21T02:03:17.288Z,75.55
2019-03-21T02:06:03.516Z,76.12
2019-03-21T02:08:29.795Z,76.87
2019-03-21T02:10:56.042Z,77.20
2019-03-21T02:13:22.463Z,76.12
2019-03-21T02:15:50.783Z,78.22
2019-03-21T02:18:17.042Z,76.62
2019-03-21T02:20:43.281Z,75.22
2019-03-21T02:23:09.559Z,76.60
2019-03-21T02:25:38.239Z,74.53
2019-03-21T02:28:04.737Z,71.62
2019-03-21T02:30:39.789Z,72.32
2019-03-21T02:33:21.780Z,75.17
2019-03-21T02:35:48.064Z,70.92
2019-03-21T02:38:14.308Z,71.82
2019-03-21T02:40:42.509Z,75.60
2019-03-21T02:43:08.884Z,70.35
2019-03-21T02:45:35.123Z,69.92
2019-03-21T02:48:01.408Z,73.45
2019-03-21T02:50:32.598Z,74.00
2019-03-21T02:52:58.925Z,75.50
2019-03-21T02:55:25.423Z,72.90
2019-03-21T02:57:51.792Z,65.15
2019-03-21T03:00:24.791Z,72.75
2019-03-21T03:02:53.460Z,69.15
2019-03-21T03:05:23.020Z,68.87
2019-03-21T03:07:49.278Z,69.60
2019-03-21T03:10:22.281Z,69.37
2019-03-21T03:12:48.560Z,65.83
2019-03-21T03:15:23.086Z,67.32
2019-03-21T03:17:46.512Z,71.42
2019-03-21T03:20:15.468Z,69.82
2019-03-21T03:22:41.723Z,66.22
2019-03-21T03:25:14.032Z,70.95
2019-03-21T03:27:40.811Z,66.80
2019-03-21T03:30:10.869Z,68.70
2019-03-21T03:32:37.288Z,66.57
2019-03-21T03:35:07.045Z,71.33
2019-03-21T03:37:33.386Z,67.27
2019-03-21T03:39:59.677Z,64.47
2019-03-21T03:42:26.011Z,68.02
2019-03-21T03:44:52.397Z,62.43
2019-03-21T03:47:18.776Z,69.67
2019-03-21T03:49:45.020Z,70.85
2019-03-21T03:52:11.287Z,66.45
2019-03-21T03:54:37.670Z,66.47
2019-03-21T03:57:04.086Z,68.55
2019-03-21T03:59:30.303Z,69.65
2019-03-21T04:01:56.560Z,69.92
2019-03-21T04:04:22.896Z,64.30
2019-03-21T04:06:49.337Z,67.08
2019-03-21T04:09:15.777Z,65.55
2019-03-21T04:11:42.299Z,66.77
2019-03-21T04:14:08.708Z,65.50
2019-03-21T04:16:34.947Z,59.08
2019-03-21T04:19:01.197Z,64.65
2019-03-21T04:21:27.577Z,59.00
2019-03-21T04:23:53.863Z,63.55
2019-03-21T04:26:26.611Z,66.07
2019-03-21T04:28:53.118Z,58.63
2019-03-21T04:31:19.361Z,62.17
2019-03-21T04:33:47.218Z,61.53
2019-03-21T04:36:13.725Z,62.30
2019-03-21T04:38:40.074Z,63.40
2019-03-21T04:41:06.345Z,62.15
2019-03-21T04:43:32.567Z,61.92
2019-03-21T04:46:03.291Z,62.20
2019-03-21T04:48:27.070Z,58.87
2019-03-21T04:50:53.369Z,60.50
2019-03-21T04:53:19.661Z,59.50
2019-03-21T04:55:45.924Z,57.90
2019-03-21T04:58:12.202Z,57.08
2019-03-21T05:00:44.387Z,55.85
2019-03-21T05:03:12.967Z,56.35
2019-03-21T05:05:39.303Z,56.25
2019-03-21T05:08:05.584Z,53.48
2019-03-21T05:10:31.877Z,54.03
2019-03-21T05:12:58.111Z,49.90
2019-03-21T05:15:28.238Z,45.67
2019-03-21T05:17:57.895Z,44.88
2019-03-21T05:20:26.802Z,41.28
2019-03-21T05:22:53.170Z,38.92
2019-03-21T05:25:19.519Z,40.60
2019-03-21T05:27:45.897Z,38.45
2019-03-21T05:30:38.543Z,40.60
2019-03-21T05:33:05.081Z,41.58
2019-03-21T05:35:31.645Z,42.00
2019-03-21T05:37:58.059Z,42.88
2019-03-21T05:40:24.429Z,40.92
2019-03-21T05:42:57.440Z,40.78
2019-03-21T05:45:23.710Z,42.75
2019-03-21T05:47:49.968Z,40.48
2019-03-21T05:50:16.535Z,42.27
2019-03-21T05:52:42.767Z,43.98
2019-03-21T05:55:10.606Z,42.80
2019-03-21T05:57:37.317Z,42.78
2019-03-21T06:00:13.406Z,46.02
2019-03-21T06:02:39.795Z,47.38
2019-03-21T06:05:06.240Z,48.25
2019-03-21T06:07:35.019Z,49.15
2019-03-21T06:10:01.925Z,47.55
2019-03-21T06:12:28.145Z,47.58
2019-03-21T06:14:58.065Z,47.50
2019-03-21T06:17:24.484Z,47.80
2019-03-21T06:19:54.581Z,47.53
2019-03-21T06:22:30.564Z,48.68
2019-03-21T06:25:15.776Z,50.50
2019-03-21T06:27:40.597Z,50.78
2019-03-21T06:30:07.554Z,48.30
2019-03-21T06:32:33.823Z,49.98
2019-03-21T06:35:00.331Z,49.23
2019-03-21T06:37:28.640Z,47.17
2019-03-21T06:39:54.988Z,46.15
2019-03-21T06:42:21.250Z,45.73
2019-03-21T06:44:47.502Z,42.30
2019-03-21T06:47:13.918Z,46.48
2019-03-21T06:49:40.374Z,46.05
2019-03-21T06:52:06.763Z,46.45
2019-03-21T06:54:33.111Z,49.13
2019-03-21T06:57:02.426Z,47.55
2019-03-21T06:59:30.877Z,48.28
2019-03-21T07:01:57.162Z,48.87
2019-03-21T07:04:23.407Z,49.08
2019-03-21T07:06:49.704Z,44.83
2019-03-21T07:09:15.945Z,48.78
2019-03-21T07:11:42.220Z,46.98
2019-03-21T07:14:08.846Z,45.50
2019-03-21T07:16:35.124Z,44.95
2019-03-21T07:19:01.365Z,44.58
2019-03-21T07:21:27.908Z,43.50
2019-03-21T07:23:54.258Z,42.95
2019-03-21T07:26:20.642Z,42.35
2019-03-21T07:28:46.920Z,44.50
2019-03-21T07:31:13.177Z,40.73
2019-03-21T07:33:39.470Z,43.23
2019-03-21T07:36:05.757Z,44.13
2019-03-21T07:38:32.007Z,38.35
2019-03-21T07:40:58.243Z,42.00
2019-03-21T07:43:24.550Z,39.20
2019-03-21T07:45:50.771Z,40.00
2019-03-21T07:48:17.224Z,38.63
2019-03-21T07:50:43.466Z,40.85
2019-03-21T07:53:09.738Z,40.95
2019-03-21T07:55:36.286Z,41.40
2019-03-21T07:58:02.796Z,40.75
2019-03-21T08:00:29.158Z,40.92
2019-03-21T08:02:55.552Z,42.10
2019-03-21T08:05:21.924Z,41.37
2019-03-21T08:07:48.213Z,41.45
2019-03-21T08:10:14.820Z,40.65
2019-03-21T08:12:41.494Z,39.83
2019-03-21T08:15:10.558Z,41.65
2019-03-21T08:17:36.805Z,40.65
2019-03-21T08:20:11.804Z,39.55
2019-03-21T08:22:38.205Z,37.70
2019-03-21T08:25:06.343Z,36.38
2019-03-21T08:27:32.759Z,37.00
2019-03-21T08:29:59.032Z,36.05
2019-03-21T08:32:25.305Z,33.58
2019-03-21T08:34:51.641Z,30.82
2019-03-21T08:37:18.300Z,31.68
2019-03-21T08:39:44.723Z,29.12
2019-03-21T08:42:11.064Z,28.55
2019-03-21T08:44:37.330Z,28.27
2019-03-21T08:47:03.839Z,27.02
2019-03-21T08:49:30.107Z,27.17
2019-03-21T08:51:56.478Z,28.25
2019-03-21T08:54:22.838Z,27.70
2019-03-21T08:56:49.145Z,25.12
2019-03-21T08:59:19.177Z,27.75
2019-03-21T09:01:45.579Z,25.52
2019-03-21T09:04:12.060Z,26.37
2019-03-21T09:06:38.350Z,26.93
2019-03-21T09:09:06.599Z,27.25
2019-03-21T09:11:32.850Z,28.77
2019-03-21T09:13:59.119Z,27.75
2019-03-21T09:16:25.406Z,28.47
2019-03-21T09:18:51.661Z,28.52
2019-03-21T09:21:19.955Z,29.48
2019-03-21T09:23:46.258Z,29.75
2019-03-21T09:26:12.704Z,28.40
2019-03-21T09:28:38.988Z,28.77
2019-03-21T09:31:05.239Z,25.88
2019-03-21T09:33:31.623Z,25.08
2019-03-21T09:35:57.866Z,26.02
2019-03-21T09:38:24.175Z,26.80
2019-03-21T09:40:50.535Z,30.68
2019-03-21T09:43:16.766Z,25.25
2019-03-21T09:45:43.034Z,26.00
2019-03-21T09:48:09.525Z,25.92
2019-03-21T09:50:36.102Z,25.50
2019-03-21T09:53:02.547Z,26.05
2019-03-21T09:55:28.907Z,25.85
2019-03-21T09:57:55.395Z,24.32
2019-03-21T10:00:32.429Z,24.52
2019-03-21T10:02:59.259Z,24.35
2019-03-21T10:05:25.707Z,23.98
2019-03-21T10:07:52.112Z,25.68
2019-03-21T10:10:27.023Z,26.00
2019-03-21T10:13:13.231Z,25.57
2019-03-21T10:15:39.616Z,26.42
2019-03-21T10:18:06.012Z,25.10
2019-03-21T10:20:32.378Z,26.65
2019-03-21T10:22:58.953Z,27.37
2019-03-21T10:25:26.690Z,26.33
2019-03-21T10:27:53.332Z,25.12
2019-03-21T10:30:37.084Z,26.30
2019-03-21T10:33:05.197Z,27.93
2019-03-21T10:35:32.665Z,26.48
2019-03-21T10:37:59.349Z,28.73
2019-03-21T10:40:25.756Z,28.05
2019-03-21T10:42:52.179Z,27.58
2019-03-21T10:45:18.564Z,28.07
2019-03-21T10:47:45.085Z,27.02
2019-03-21T10:50:15.193Z,27.32
2019-03-21T10:52:41.449Z,28.38
2019-03-21T10:55:08.004Z,26.62
2019-03-21T10:57:34.278Z,28.87
2019-03-21T11:00:01.863Z,27.48
2019-03-21T11:02:48.744Z,29.72
2019-03-21T11:05:15.326Z,28.92
2019-03-21T11:07:41.573Z,28.52
2019-03-21T11:10:08.032Z,29.90
2019-03-21T11:12:34.329Z,28.38
2019-03-21T11:15:00.680Z,28.20
2019-03-21T11:17:27.174Z,27.40
2019-03-21T11:19:53.541Z,28.65
2019-03-21T11:22:20.080Z,28.50
2019-03-21T11:24:46.374Z,26.80
2019-03-21T11:27:12.662Z,30.45
2019-03-21T11:29:38.948Z,28.45
2019-03-21T11:32:05.325Z,27.87
2019-03-21T11:34:31.632Z,28.65
2019-03-21T11:36:57.897Z,30.05
2019-03-21T11:39:24.123Z,29.32
2019-03-21T11:41:50.781Z,28.75
2019-03-21T11:44:17.009Z,27.25
2019-03-21T11:46:43.387Z,27.87
2019-03-21T11:49:09.672Z,27.93
2019-03-21T11:51:36.179Z,26.52
2019-03-21T11:54:02.686Z,28.12
2019-03-21T11:56:28.989Z,25.85
2019-03-21T11:58:55.286Z,26.80
2019-03-21T12:01:21.785Z,27.52
2019-03-21T12:03:48.245Z,27.93
2019-03-21T12:06:14.698Z,27.70
2019-03-21T12:08:41.116Z,26.90
2019-03-21T12:11:07.362Z,27.02
2019-03-21T12:13:33.608Z,28.12
2019-03-21T12:16:00.063Z,28.73
2019-03-21T12:18:26.474Z,26.77
2019-03-21T12:20:52.794Z,27.15
2019-03-21T12:23:19.066Z,27.62
2019-03-21T12:25:45.467Z,25.85
2019-03-21T12:28:11.782Z,25.55
2019-03-21T12:30:39.094Z,24.27
2019-03-21T12:33:05.591Z,23.12
2019-03-21T12:35:32.028Z,24.15
2019-03-21T12:37:58.546Z,21.75
2019-03-21T12:40:24.952Z,22.50
2019-03-21T12:42:51.448Z,21.80
2019-03-21T12:45:17.724Z,21.42
2019-03-21T12:47:43.985Z,21.97
2019-03-21T12:50:10.683Z,20.32
2019-03-21T12:53:37.202Z,18.82
2019-03-21T12:55:05.873Z,20.00
2019-03-21T12:57:32.287Z,21.65
2019-03-21T12:59:58.521Z,19.17
2019-03-21T13:02:32.215Z,20.60
2019-03-21T13:04:53.279Z,20.40
2019-03-21T13:07:20.051Z,21.30
2019-03-21T13:09:46.977Z,20.97
2019-03-21T13:12:13.462Z,20.55
2019-03-21T13:14:39.856Z,20.52
2019-03-21T13:17:06.206Z,20.15
2019-03-21T13:19:32.515Z,21.00
2019-03-21T13:21:58.745Z,20.08
2019-03-21T13:24:24.988Z,21.48
2019-03-21T13:26:51.268Z,21.27
2019-03-21T13:29:17.570Z,23.10
2019-03-21T13:31:43.912Z,20.97
2019-03-21T13:34:10.332Z,21.35
2019-03-21T13:36:36.566Z,22.42
2019-03-21T13:39:05.626Z,21.42
2019-03-21T13:41:31.924Z,21.48
2019-03-21T13:43:58.378Z,22.58
2019-03-21T13:46:24.757Z,21.87
2019-03-21T13:48:51.245Z,23.07
2019-03-21T13:51:17.650Z,22.85
2019-03-21T13:53:44.009Z,21.55
2019-03-21T13:56:10.419Z,21.80
2019-03-21T13:58:36.808Z,22.20
2019-03-21T14:01:03.259Z,22.37
2019-03-21T14:03:29.855Z,22.20
2019-03-21T14:05:56.098Z,22.87
2019-03-21T14:08:22.637Z,22.85
2019-03-21T14:10:49.110Z,22.60
2019-03-21T14:13:15.380Z,22.87
2019-03-21T14:15:41.561Z,24.05
2019-03-21T14:18:07.910Z,22.77
2019-03-21T14:20:34.160Z,23.42
2019-03-21T14:23:00.676Z,23.47
2019-03-21T14:25:26.950Z,23.12
2019-03-21T14:27:53.288Z,23.85
2019-03-21T14:30:19.785Z,22.05
2019-03-21T14:32:46.043Z,23.67
2019-03-21T14:35:12.978Z,22.35
2019-03-21T14:37:39.348Z,23.55
2019-03-21T14:40:09.162Z,22.30
2019-03-21T14:42:35.578Z,22.82
2019-03-21T14:45:04.866Z,23.00
2019-03-21T14:47:36.108Z,23.75
2019-03-21T14:49:59.226Z,23.20
2019-03-21T14:52:25.567Z,23.45
2019-03-21T14:54:52.035Z,22.67
2019-03-21T14:57:18.278Z,22.95
2019-03-21T14:59:44.626Z,21.68
2019-03-21T15:02:11.066Z,21.97
2019-03-21T15:04:37.345Z,20.97
2019-03-21T15:07:03.734Z,20.90
2019-03-21T15:09:30.012Z,22.50
2019-03-21T15:11:56.535Z,22.58
2019-03-21T15:14:23.023Z,21.33
2019-03-21T15:16:49.432Z,22.62
2019-03-21T15:19:15.925Z,23.87
2019-03-21T15:21:42.191Z,23.57
2019-03-21T15:24:08.514Z,22.90
2019-03-21T15:26:34.923Z,22.58
2019-03-21T15:29:01.199Z,23.62
2019-03-21T15:31:27.533Z,22.25
2019-03-21T15:33:53.979Z,22.15
2019-03-21T15:36:20.240Z,23.30
2019-03-21T15:38:46.645Z,22.87
2019-03-21T15:41:12.927Z,23.18
2019-03-21T15:43:39.425Z,22.35
2019-03-21T15:46:06.716Z,22.50
2019-03-21T15:48:33.155Z,22.05
2019-03-21T15:51:04.666Z,19.87
2019-03-21T15:53:27.807Z,22.32
2019-03-21T15:55:54.262Z,21.95
2019-03-21T15:58:20.621Z,22.37
2019-03-21T16:00:47.085Z,22.70
2019-03-21T16:03:13.617Z,21.75
2019-03-21T16:05:40.383Z,22.37
2019-03-21T16:08:08.893Z,22.02
2019-03-21T16:10:35.088Z,21.85
2019-03-21T16:13:01.622Z,22.45
2019-03-21T16:15:28.117Z,22.20
2019-03-21T16:17:54.491Z,22.82
2019-03-21T16:20:20.791Z,22.07
2019-03-21T16:22:47.323Z,23.22
2019-03-21T16:25:13.751Z,22.60
2019-03-21T16:27:40.143Z,21.90
2019-03-21T16:30:08.708Z,19.02
2019-03-21T16:32:34.981Z,21.62
2019-03-21T16:35:01.410Z,22.40
2019-03-21T16:37:27.758Z,22.62
2019-03-21T16:39:54.062Z,22.87
2019-03-21T16:42:20.487Z,21.15
2019-03-21T16:44:46.737Z,21.20
2019-03-21T16:47:13.143Z,22.02
2019-03-21T16:49:39.485Z,24.45
2019-03-21T16:52:05.962Z,23.75
2019-03-21T16:54:32.229Z,24.40
2019-03-21T16:56:58.543Z,24.52
2019-03-21T16:59:24.939Z,25.55
2019-03-21T17:01:51.302Z,24.00
2019-03-21T17:04:17.641Z,26.07
2019-03-21T17:06:43.886Z,25.62
2019-03-21T17:09:10.345Z,25.92
2019-03-21T17:11:36.739Z,24.90
2019-03-21T17:14:03.354Z,24.15
2019-03-21T17:16:29.705Z,23.38
2019-03-21T17:18:55.949Z,23.07
2019-03-21T17:21:22.229Z,24.25
2019-03-21T17:23:48.507Z,23.85
2019-03-21T17:26:15.994Z,22.87
2019-03-21T17:28:42.516Z,21.77
2019-03-21T17:31:08.792Z,23.20
2019-03-21T17:33:35.080Z,22.70
2019-03-21T17:36:01.410Z,23.30
2019-03-21T17:38:28.374Z,25.00
2019-03-21T17:40:54.733Z,25.10
2019-03-21T17:43:21.117Z,24.05
2019-03-21T17:45:47.523Z,23.80
2019-03-21T17:48:13.895Z,25.10
2019-03-21T17:50:42.318Z,24.85
2019-03-21T17:53:08.956Z,23.92
2019-03-21T17:55:35.282Z,24.80
2019-03-21T17:58:01.705Z,24.75
2019-03-21T18:00:29.932Z,24.32
2019-03-21T18:02:56.443Z,25.08
2019-03-21T18:05:22.791Z,25.23
2019-03-21T18:07:49.093Z,22.82
2019-03-21T18:10:27.463Z,24.18
2019-03-21T18:12:53.979Z,25.10
2019-03-21T18:15:20.361Z,25.85
2019-03-21T18:17:46.711Z,25.88
2019-03-21T18:20:12.970Z,25.17
2019-03-21T18:22:39.230Z,21.68
2019-03-21T18:25:05.745Z,26.07
2019-03-21T18:27:37.757Z,24.95
2019-03-21T18:30:05.963Z,23.75
2019-03-21T18:32:32.211Z,24.67
2019-03-21T18:34:58.704Z,25.72
2019-03-21T18:37:24.964Z,25.30
2019-03-21T18:39:51.455Z,25.25
2019-03-21T18:42:17.861Z,25.92
2019-03-21T18:44:44.337Z,27.98
2019-03-21T18:47:10.619Z,26.75
2019-03-21T18:49:37.063Z,26.25
2019-03-21T18:52:03.484Z,28.75
2019-03-21T18:54:29.886Z,28.83
2019-03-21T18:56:56.137Z,27.40
2019-03-21T18:59:22.584Z,26.57
2019-03-21T19:01:57.932Z,28.12
2019-03-21T19:04:17.070Z,30.43
2019-03-21T19:06:43.331Z,28.77
2019-03-21T19:09:09.596Z,26.87
2019-03-21T19:11:35.871Z,29.18
2019-03-21T19:14:02.465Z,27.58
2019-03-21T19:16:31.990Z,26.15
2019-03-21T19:18:57.794Z,27.07
2019-03-21T19:21:24.126Z,28.35
2019-03-21T19:23:50.923Z,28.12
2019-03-21T19:26:17.196Z,28.47
2019-03-21T19:28:43.859Z,28.17
2019-03-21T19:31:10.389Z,28.32
2019-03-21T19:33:36.993Z,27.45
2019-03-21T19:36:03.644Z,28.12
2019-03-21T19:38:30.080Z,24.90
2019-03-21T19:40:56.407Z,28.00
2019-03-21T19:43:22.799Z,26.80
2019-03-21T19:45:49.221Z,29.02
2019-03-21T19:48:15.748Z,30.23
2019-03-21T19:50:42.116Z,25.40
2019-03-21T19:53:08.731Z,26.50
2019-03-21T19:55:35.313Z,31.12
2019-03-21T19:58:01.991Z,30.52
2019-03-21T20:00:28.364Z,31.52
2019-03-21T20:02:54.803Z,32.55
2019-03-21T20:05:21.300Z,31.90
2019-03-21T20:07:47.713Z,35.15
2019-03-21T20:10:16.263Z,31.70
2019-03-21T20:12:42.705Z,36.13
2019-03-21T20:15:11.319Z,36.05
2019-03-21T20:17:37.685Z,36.13
2019-03-21T20:20:10.580Z,36.03
2019-03-21T20:22:37.438Z,34.05
2019-03-21T20:25:05.448Z,34.43
2019-03-21T20:27:31.746Z,37.15
2019-03-21T20:29:58.020Z,36.65
2019-03-21T20:32:24.889Z,36.48
2019-03-21T20:34:51.289Z,36.65
2019-03-21T20:37:17.680Z,36.98
2019-03-21T20:39:44.317Z,35.52
2019-03-21T20:42:10.656Z,35.65
2019-03-21T20:44:37.005Z,34.80
2019-03-21T20:47:03.571Z,36.28
2019-03-21T20:49:29.814Z,34.60
2019-03-21T20:51:56.337Z,37.00
2019-03-21T20:54:22.638Z,37.58
2019-03-21T20:56:49.060Z,38.42
2019-03-21T20:59:15.494Z,39.95
2019-03-21T21:01:42.141Z,39.25
2019-03-21T21:04:08.531Z,37.98
2019-03-21T21:06:35.927Z,39.95
2019-03-21T21:09:05.031Z,37.85
2019-03-21T21:11:31.344Z,39.67
2019-03-21T21:13:57.899Z,41.00
2019-03-21T21:16:24.209Z,39.18
2019-03-21T21:18:50.616Z,42.85
2019-03-21T21:21:17.709Z,41.20
2019-03-21T21:23:44.583Z,39.55
2019-03-21T21:26:10.973Z,41.30
2019-03-21T21:28:37.335Z,35.73
2019-03-21T21:31:03.897Z,36.28
2019-03-21T21:33:30.317Z,41.25
2019-03-21T21:35:56.715Z,42.48
2019-03-21T21:38:23.079Z,43.28
2019-03-21T21:40:49.342Z,42.78
2019-03-21T21:43:15.848Z,42.93
2019-03-21T21:45:42.221Z,43.25
2019-03-21T21:48:08.711Z,41.33
2019-03-21T21:50:35.052Z,43.68
2019-03-21T21:53:01.502Z,43.52
2019-03-21T21:55:27.803Z,42.13
2019-03-21T21:57:54.476Z,42.83
2019-03-21T22:00:21.086Z,40.33
2019-03-21T22:02:49.398Z,40.83
2019-03-21T22:05:15.960Z,37.40
2019-03-21T22:07:42.590Z,41.65
2019-03-21T22:10:10.312Z,37.73
2019-03-21T22:12:36.715Z,41.80
2019-03-21T22:15:09.383Z,38.05
2019-03-21T22:17:36.379Z,43.15
2019-03-21T22:20:04.306Z,41.18
2019-03-21T22:22:31.638Z,42.08
2019-03-21T22:24:58.240Z,38.58
2019-03-21T22:27:24.625Z,41.28
2019-03-21T22:29:50.863Z,42.08
2019-03-21T22:32:17.584Z,41.50
2019-03-21T22:34:43.884Z,43.10
2019-03-21T22:37:10.155Z,42.20
2019-03-21T22:39:36.449Z,42.62
2019-03-21T22:42:03.347Z,41.45
2019-03-21T22:44:29.580Z,41.88
2019-03-21T22:46:56.227Z,41.05
2019-03-21T22:49:22.516Z,40.30
2019-03-21T22:51:51.241Z,41.53
2019-03-21T22:54:16.911Z,43.15
2019-03-21T22:56:43.235Z,43.58
2019-03-21T22:59:09.707Z,36.68
2019-03-21T23:01:36.157Z,40.67
2019-03-21T23:04:03.001Z,38.90
2019-03-21T23:06:29.641Z,42.08
2019-03-21T23:08:56.121Z,42.13
2019-03-21T23:11:22.373Z,42.10
2019-03-21T23:13:48.753Z,39.27
2019-03-21T23:16:14.941Z,36.50
2019-03-21T23:18:41.881Z,37.95
2019-03-21T23:21:08.121Z,38.80
2019-03-21T23:23:34.417Z,40.20
2019-03-21T23:26:00.952Z,40.65
2019-03-21T23:28:27.260Z,39.00
2019-03-21T23:30:53.527Z,39.88
2019-03-21T23:33:19.939Z,40.55
2019-03-21T23:35:46.209Z,36.58
2019-03-21T23:38:12.492Z,39.55
2019-03-21T23:40:38.863Z,39.90
2019-03-21T23:43:05.138Z,37.73
2019-03-21T23:45:31.555Z,36.10
2019-03-21T23:47:57.879Z,35.05
2019-03-21T23:50:24.224Z,38.30
2019-03-21T23:52:50.498Z,37.20
2019-03-21T23:55:18.867Z,38.48
2019-03-21T23:57:45.229Z,39.05
